sensor_id;sensor_type;location;lat;lon;timestamp;P1;durP1;ratioP1;P2;durP2;ratioP2
32946;SDS011;54465;51.230;22.504;2023-01-29T00:01:38;10.82;;;6.35;;
32946;SDS011;54465;51.230;22.504;2023-01-29T00:06:38;10.00;;;5.35;;
32946;SDS011;54465;51.230;22.504;2023-01-29T00:11:39;13.75;;;6.68;;
32946;SDS011;54465;51.230;22.504;2023-01-29T00:16:40;7.88;;;5.43;;
32946;SDS011;54465;51.230;22.504;2023-01-29T00:21:40;8.93;;;5.05;;
32946;SDS011;54465;51.230;22.504;2023-01-29T00:26:41;8.75;;;5.13;;
32946;SDS011;54465;51.230;22.504;2023-01-29T00:31:42;7.80;;;4.75;;
32946;SDS011;54465;51.230;22.504;2023-01-29T00:36:44;6.47;;;4.55;;
32946;SDS011;54465;51.230;22.504;2023-01-29T00:41:46;7.40;;;4.72;;
32946;SDS011;54465;51.230;22.504;2023-01-29T00:47:05;8.40;;;5.38;;
32946;SDS011;54465;51.230;22.504;2023-01-29T00:52:29;6.97;;;4.93;;
32946;SDS011;54465;51.230;22.504;2023-01-29T00:57:31;6.10;;;4.32;;
32946;SDS011;54465;51.230;22.504;2023-01-29T01:02:32;7.10;;;4.82;;
32946;SDS011;54465;51.230;22.504;2023-01-29T01:07:52;7.60;;;4.22;;
32946;SDS011;54465;51.230;22.504;2023-01-29T01:12:59;5.95;;;4.43;;
32946;SDS011;54465;51.230;22.504;2023-01-29T01:18:02;8.30;;;4.72;;
32946;SDS011;54465;51.230;22.504;2023-01-29T01:23:03;7.15;;;5.20;;
32946;SDS011;54465;51.230;22.504;2023-01-29T01:28:04;7.75;;;4.70;;
32946;SDS011;54465;51.230;22.504;2023-01-29T01:33:05;8.40;;;5.65;;
32946;SDS011;54465;51.230;22.504;2023-01-29T01:38:06;6.45;;;5.28;;
32946;SDS011;54465;51.230;22.504;2023-01-29T01:43:08;7.47;;;5.03;;
32946;SDS011;54465;51.230;22.504;2023-01-29T01:53:21;7.53;;;5.53;;
32946;SDS011;54465;51.230;22.504;2023-01-29T01:58:29;9.65;;;5.57;;
32946;SDS011;54465;51.230;22.504;2023-01-29T02:03:32;8.05;;;5.47;;
32946;SDS011;54465;51.230;22.504;2023-01-29T02:08:57;10.05;;;6.07;;
32946;SDS011;54465;51.230;22.504;2023-01-29T02:14:21;12.40;;;7.18;;
32946;SDS011;54465;51.230;22.504;2023-01-29T02:30:53;10.90;;;6.20;;
32946;SDS011;54465;51.230;22.504;2023-01-29T02:45:49;5.88;;;4.25;;
32946;SDS011;54465;51.230;22.504;2023-01-29T02:51:03;7.07;;;5.10;;
32946;SDS011;54465;51.230;22.504;2023-01-29T02:56:16;9.20;;;6.20;;
32946;SDS011;54465;51.230;22.504;2023-01-29T03:01:27;9.30;;;6.38;;
32946;SDS011;54465;51.230;22.504;2023-01-29T03:06:31;10.90;;;7.60;;
32946;SDS011;54465;51.230;22.504;2023-01-29T03:11:36;9.48;;;6.63;;
32946;SDS011;54465;51.230;22.504;2023-01-29T03:21:46;11.65;;;7.03;;
32946;SDS011;54465;51.230;22.504;2023-01-29T03:26:51;8.80;;;5.65;;
32946;SDS011;54465;51.230;22.504;2023-01-29T03:32:16;7.07;;;4.38;;
32946;SDS011;54465;51.230;22.504;2023-01-29T03:37:23;6.00;;;4.10;;
32946;SDS011;54465;51.230;22.504;2023-01-29T03:42:28;5.25;;;3.90;;
32946;SDS011;54465;51.230;22.504;2023-01-29T03:57:57;4.75;;;4.13;;
32946;SDS011;54465;51.230;22.504;2023-01-29T04:03:12;6.80;;;4.70;;
32946;SDS011;54465;51.230;22.504;2023-01-29T04:08:19;5.47;;;4.60;;
32946;SDS011;54465;51.230;22.504;2023-01-29T04:13:25;7.78;;;4.25;;
32946;SDS011;54465;51.230;22.504;2023-01-29T04:18:27;6.80;;;4.53;;
32946;SDS011;54465;51.230;22.504;2023-01-29T04:23:39;6.97;;;5.57;;
32946;SDS011;54465;51.230;22.504;2023-01-29T04:28:55;7.35;;;5.15;;
32946;SDS011;54465;51.230;22.504;2023-01-29T04:44:58;6.97;;;5.22;;
32946;SDS011;54465;51.230;22.504;2023-01-29T05:00:49;6.63;;;4.88;;
32946;SDS011;54465;51.230;22.504;2023-01-29T05:05:53;6.00;;;3.63;;
32946;SDS011;54465;51.230;22.504;2023-01-29T05:10:56;4.10;;;3.35;;
32946;SDS011;54465;51.230;22.504;2023-01-29T05:16:18;5.53;;;4.35;;
32946;SDS011;54465;51.230;22.504;2023-01-29T05:21:21;5.18;;;3.60;;
32946;SDS011;54465;51.230;22.504;2023-01-29T05:26:22;4.10;;;3.05;;
32946;SDS011;54465;51.230;22.504;2023-01-29T05:31:42;4.95;;;3.53;;
32946;SDS011;54465;51.230;22.504;2023-01-29T05:36:43;4.90;;;3.83;;
32946;SDS011;54465;51.230;22.504;2023-01-29T05:41:44;5.90;;;3.47;;
32946;SDS011;54465;51.230;22.504;2023-01-29T05:46:44;4.05;;;3.22;;
32946;SDS011;54465;51.230;22.504;2023-01-29T05:51:45;6.53;;;3.83;;
32946;SDS011;54465;51.230;22.504;2023-01-29T05:56:45;6.50;;;3.67;;
32946;SDS011;54465;51.230;22.504;2023-01-29T06:01:46;3.92;;;3.35;;
32946;SDS011;54465;51.230;22.504;2023-01-29T06:06:46;6.97;;;3.72;;
32946;SDS011;54465;51.230;22.504;2023-01-29T06:11:47;6.10;;;3.85;;
32946;SDS011;54465;51.230;22.504;2023-01-29T06:16:47;4.68;;;3.85;;
32946;SDS011;54465;51.230;22.504;2023-01-29T06:21:48;4.78;;;3.72;;
32946;SDS011;54465;51.230;22.504;2023-01-29T06:26:48;5.80;;;4.05;;
32946;SDS011;54465;51.230;22.504;2023-01-29T06:31:49;5.25;;;3.50;;
32946;SDS011;54465;51.230;22.504;2023-01-29T06:36:49;4.70;;;3.08;;
32946;SDS011;54465;51.230;22.504;2023-01-29T06:41:50;6.07;;;3.45;;
32946;SDS011;54465;51.230;22.504;2023-01-29T06:46:50;5.97;;;3.40;;
32946;SDS011;54465;51.230;22.504;2023-01-29T06:51:51;4.05;;;3.20;;
32946;SDS011;54465;51.230;22.504;2023-01-29T06:56:51;5.45;;;3.55;;
32946;SDS011;54465;51.230;22.504;2023-01-29T07:01:52;4.70;;;3.38;;
32946;SDS011;54465;51.230;22.504;2023-01-29T07:06:52;4.07;;;3.28;;
32946;SDS011;54465;51.230;22.504;2023-01-29T07:11:53;4.40;;;3.58;;
32946;SDS011;54465;51.230;22.504;2023-01-29T07:16:53;4.68;;;3.20;;
32946;SDS011;54465;51.230;22.504;2023-01-29T07:21:53;6.28;;;4.00;;
32946;SDS011;54465;51.230;22.504;2023-01-29T07:26:55;7.22;;;4.20;;
32946;SDS011;54465;51.230;22.504;2023-01-29T07:31:55;7.18;;;4.30;;
32946;SDS011;54465;51.230;22.504;2023-01-29T07:36:56;5.20;;;3.53;;
32946;SDS011;54465;51.230;22.504;2023-01-29T07:41:56;4.25;;;3.13;;
32946;SDS011;54465;51.230;22.504;2023-01-29T07:46:58;6.72;;;4.50;;
32946;SDS011;54465;51.230;22.504;2023-01-29T07:51:58;7.47;;;5.50;;
32946;SDS011;54465;51.230;22.504;2023-01-29T07:56:59;7.10;;;4.03;;
32946;SDS011;54465;51.230;22.504;2023-01-29T08:01:59;3.92;;;2.55;;
32946;SDS011;54465;51.230;22.504;2023-01-29T08:07:00;6.82;;;3.55;;
32946;SDS011;54465;51.230;22.504;2023-01-29T08:12:00;10.10;;;5.20;;
32946;SDS011;54465;51.230;22.504;2023-01-29T08:17:01;7.40;;;3.35;;
32946;SDS011;54465;51.230;22.504;2023-01-29T08:22:02;7.45;;;3.95;;
32946;SDS011;54465;51.230;22.504;2023-01-29T08:27:03;6.70;;;4.57;;
32946;SDS011;54465;51.230;22.504;2023-01-29T08:32:03;8.88;;;4.45;;
32946;SDS011;54465;51.230;22.504;2023-01-29T08:37:04;8.20;;;4.53;;
32946;SDS011;54465;51.230;22.504;2023-01-29T08:42:04;9.00;;;4.90;;
32946;SDS011;54465;51.230;22.504;2023-01-29T08:47:05;8.63;;;4.65;;
32946;SDS011;54465;51.230;22.504;2023-01-29T08:52:05;5.03;;;3.50;;
32946;SDS011;54465;51.230;22.504;2023-01-29T08:57:06;8.75;;;4.95;;
32946;SDS011;54465;51.230;22.504;2023-01-29T09:02:07;10.93;;;6.55;;
32946;SDS011;54465;51.230;22.504;2023-01-29T09:07:09;12.65;;;7.30;;
32946;SDS011;54465;51.230;22.504;2023-01-29T09:12:09;9.20;;;5.03;;
32946;SDS011;54465;51.230;22.504;2023-01-29T09:17:10;40.17;;;14.82;;
32946;SDS011;54465;51.230;22.504;2023-01-29T09:22:10;21.98;;;10.73;;
32946;SDS011;54465;51.230;22.504;2023-01-29T09:27:11;11.25;;;6.50;;
32946;SDS011;54465;51.230;22.504;2023-01-29T09:32:11;7.75;;;4.68;;
32946;SDS011;54465;51.230;22.504;2023-01-29T09:37:12;9.65;;;5.07;;
32946;SDS011;54465;51.230;22.504;2023-01-29T09:42:35;11.25;;;5.60;;
32946;SDS011;54465;51.230;22.504;2023-01-29T09:47:40;7.95;;;3.67;;
32946;SDS011;54465;51.230;22.504;2023-01-29T09:52:45;6.70;;;3.78;;
32946;SDS011;54465;51.230;22.504;2023-01-29T09:57:50;6.57;;;4.07;;
32946;SDS011;54465;51.230;22.504;2023-01-29T10:02:59;12.88;;;6.18;;
32946;SDS011;54465;51.230;22.504;2023-01-29T10:18:36;11.82;;;6.57;;
32946;SDS011;54465;51.230;22.504;2023-01-29T10:23:49;6.55;;;3.60;;
32946;SDS011;54465;51.230;22.504;2023-01-29T10:28:51;10.82;;;5.22;;
32946;SDS011;54465;51.230;22.504;2023-01-29T10:33:55;7.90;;;5.00;;
32946;SDS011;54465;51.230;22.504;2023-01-29T10:38:58;8.07;;;4.35;;
32946;SDS011;54465;51.230;22.504;2023-01-29T10:44:22;9.63;;;4.63;;
32946;SDS011;54465;51.230;22.504;2023-01-29T10:55:03;5.18;;;3.42;;
32946;SDS011;54465;51.230;22.504;2023-01-29T11:00:18;14.38;;;6.78;;
32946;SDS011;54465;51.230;22.504;2023-01-29T11:05:37;5.35;;;3.30;;
32946;SDS011;54465;51.230;22.504;2023-01-29T11:10:54;6.32;;;3.60;;
32946;SDS011;54465;51.230;22.504;2023-01-29T11:16:03;9.15;;;4.40;;
32946;SDS011;54465;51.230;22.504;2023-01-29T11:21:04;7.30;;;3.58;;
32946;SDS011;54465;51.230;22.504;2023-01-29T11:26:05;7.87;;;4.40;;
32946;SDS011;54465;51.230;22.504;2023-01-29T11:31:23;5.03;;;2.83;;
32946;SDS011;54465;51.230;22.504;2023-01-29T11:36:38;6.63;;;4.15;;
32946;SDS011;54465;51.230;22.504;2023-01-29T11:41:42;7.55;;;3.90;;
32946;SDS011;54465;51.230;22.504;2023-01-29T11:46:44;5.32;;;3.67;;
32946;SDS011;54465;51.230;22.504;2023-01-29T11:51:48;8.85;;;4.43;;
32946;SDS011;54465;51.230;22.504;2023-01-29T11:56:51;8.13;;;5.35;;
32946;SDS011;54465;51.230;22.504;2023-01-29T12:01:51;8.45;;;4.55;;
32946;SDS011;54465;51.230;22.504;2023-01-29T12:06:53;8.00;;;4.63;;
32946;SDS011;54465;51.230;22.504;2023-01-29T12:11:53;9.15;;;4.20;;
32946;SDS011;54465;51.230;22.504;2023-01-29T12:22:19;10.00;;;4.70;;
32946;SDS011;54465;51.230;22.504;2023-01-29T12:27:34;15.43;;;6.80;;
32946;SDS011;54465;51.230;22.504;2023-01-29T12:38:07;19.30;;;7.90;;
32946;SDS011;54465;51.230;22.504;2023-01-29T12:43:17;10.38;;;5.93;;
32946;SDS011;54465;51.230;22.504;2023-01-29T12:48:20;9.95;;;4.93;;
32946;SDS011;54465;51.230;22.504;2023-01-29T12:53:27;10.98;;;5.90;;
32946;SDS011;54465;51.230;22.504;2023-01-29T12:58:33;16.73;;;8.95;;
32946;SDS011;54465;51.230;22.504;2023-01-29T13:03:42;15.32;;;7.10;;
32946;SDS011;54465;51.230;22.504;2023-01-29T13:09:00;10.25;;;5.68;;
32946;SDS011;54465;51.230;22.504;2023-01-29T13:14:05;13.80;;;7.70;;
32946;SDS011;54465;51.230;22.504;2023-01-29T13:19:21;16.35;;;7.55;;
32946;SDS011;54465;51.230;22.504;2023-01-29T13:24:26;7.72;;;5.15;;
32946;SDS011;54465;51.230;22.504;2023-01-29T13:29:32;8.30;;;5.30;;
32946;SDS011;54465;51.230;22.504;2023-01-29T13:34:34;8.60;;;6.18;;
32946;SDS011;54465;51.230;22.504;2023-01-29T13:39:36;8.18;;;5.03;;
32946;SDS011;54465;51.230;22.504;2023-01-29T13:50:01;8.85;;;5.88;;
32946;SDS011;54465;51.230;22.504;2023-01-29T14:10:30;40.22;;;17.38;;
32946;SDS011;54465;51.230;22.504;2023-01-29T14:15:32;18.92;;;8.35;;
32946;SDS011;54465;51.230;22.504;2023-01-29T14:20:36;14.80;;;8.32;;
32946;SDS011;54465;51.230;22.504;2023-01-29T14:25:37;18.85;;;9.13;;
32946;SDS011;54465;51.230;22.504;2023-01-29T14:30:42;15.05;;;7.78;;
32946;SDS011;54465;51.230;22.504;2023-01-29T14:35:48;11.48;;;6.53;;
32946;SDS011;54465;51.230;22.504;2023-01-29T14:40:49;14.63;;;7.35;;
32946;SDS011;54465;51.230;22.504;2023-01-29T14:45:50;16.55;;;8.90;;
32946;SDS011;54465;51.230;22.504;2023-01-29T14:50:50;21.77;;;9.35;;
32946;SDS011;54465;51.230;22.504;2023-01-29T15:01:18;21.88;;;10.70;;
32946;SDS011;54465;51.230;22.504;2023-01-29T15:06:25;13.48;;;7.25;;
32946;SDS011;54465;51.230;22.504;2023-01-29T15:16:43;20.02;;;9.27;;
32946;SDS011;54465;51.230;22.504;2023-01-29T15:27:10;14.27;;;7.13;;
32946;SDS011;54465;51.230;22.504;2023-01-29T15:32:18;20.52;;;9.13;;
32946;SDS011;54465;51.230;22.504;2023-01-29T15:37:32;28.90;;;13.75;;
32946;SDS011;54465;51.230;22.504;2023-01-29T15:42:43;26.42;;;13.40;;
32946;SDS011;54465;51.230;22.504;2023-01-29T15:47:45;14.32;;;7.60;;
32946;SDS011;54465;51.230;22.504;2023-01-29T15:52:50;16.58;;;8.98;;
32946;SDS011;54465;51.230;22.504;2023-01-29T15:57:51;15.00;;;9.30;;
32946;SDS011;54465;51.230;22.504;2023-01-29T16:02:52;16.77;;;8.15;;
32946;SDS011;54465;51.230;22.504;2023-01-29T16:07:54;17.33;;;9.93;;
32946;SDS011;54465;51.230;22.504;2023-01-29T16:12:55;15.82;;;8.32;;
32946;SDS011;54465;51.230;22.504;2023-01-29T16:17:57;16.02;;;7.68;;
32946;SDS011;54465;51.230;22.504;2023-01-29T16:23:01;14.18;;;8.38;;
32946;SDS011;54465;51.230;22.504;2023-01-29T16:28:03;15.88;;;9.65;;
32946;SDS011;54465;51.230;22.504;2023-01-29T16:33:05;17.20;;;9.30;;
32946;SDS011;54465;51.230;22.504;2023-01-29T16:48:43;19.20;;;9.60;;
32946;SDS011;54465;51.230;22.504;2023-01-29T16:54:00;16.05;;;8.80;;
32946;SDS011;54465;51.230;22.504;2023-01-29T16:59:03;20.73;;;11.15;;
32946;SDS011;54465;51.230;22.504;2023-01-29T17:04:12;18.23;;;9.25;;
32946;SDS011;54465;51.230;22.504;2023-01-29T17:09:23;19.00;;;10.20;;
32946;SDS011;54465;51.230;22.504;2023-01-29T17:14:29;21.17;;;10.57;;
32946;SDS011;54465;51.230;22.504;2023-01-29T17:19:31;21.42;;;8.90;;
32946;SDS011;54465;51.230;22.504;2023-01-29T17:24:31;20.90;;;10.00;;
32946;SDS011;54465;51.230;22.504;2023-01-29T17:29:32;17.90;;;10.23;;
32946;SDS011;54465;51.230;22.504;2023-01-29T17:34:33;18.08;;;9.20;;
32946;SDS011;54465;51.230;22.504;2023-01-29T17:39:33;23.15;;;10.90;;
32946;SDS011;54465;51.230;22.504;2023-01-29T17:44:33;22.35;;;11.23;;
32946;SDS011;54465;51.230;22.504;2023-01-29T17:49:34;26.08;;;12.93;;
32946;SDS011;54465;51.230;22.504;2023-01-29T17:54:36;17.23;;;9.65;;
32946;SDS011;54465;51.230;22.504;2023-01-29T17:59:36;22.58;;;11.00;;
32946;SDS011;54465;51.230;22.504;2023-01-29T18:04:37;23.65;;;11.32;;
32946;SDS011;54465;51.230;22.504;2023-01-29T18:09:37;22.83;;;12.05;;
32946;SDS011;54465;51.230;22.504;2023-01-29T18:14:38;23.08;;;12.57;;
32946;SDS011;54465;51.230;22.504;2023-01-29T18:19:38;21.02;;;11.32;;
32946;SDS011;54465;51.230;22.504;2023-01-29T18:24:39;21.42;;;12.63;;
32946;SDS011;54465;51.230;22.504;2023-01-29T18:29:39;18.30;;;10.65;;
32946;SDS011;54465;51.230;22.504;2023-01-29T18:34:40;17.88;;;10.00;;
32946;SDS011;54465;51.230;22.504;2023-01-29T18:39:40;20.25;;;11.95;;
32946;SDS011;54465;51.230;22.504;2023-01-29T18:44:41;16.27;;;9.65;;
32946;SDS011;54465;51.230;22.504;2023-01-29T18:49:41;15.93;;;10.18;;
32946;SDS011;54465;51.230;22.504;2023-01-29T18:54:42;16.08;;;9.45;;
32946;SDS011;54465;51.230;22.504;2023-01-29T18:59:42;14.80;;;9.02;;
32946;SDS011;54465;51.230;22.504;2023-01-29T19:04:43;19.05;;;10.95;;
32946;SDS011;54465;51.230;22.504;2023-01-29T19:09:44;25.30;;;13.23;;
32946;SDS011;54465;51.230;22.504;2023-01-29T19:14:46;22.45;;;12.15;;
32946;SDS011;54465;51.230;22.504;2023-01-29T19:19:46;21.95;;;11.45;;
32946;SDS011;54465;51.230;22.504;2023-01-29T19:24:46;21.25;;;11.55;;
32946;SDS011;54465;51.230;22.504;2023-01-29T19:29:47;16.30;;;10.25;;
32946;SDS011;54465;51.230;22.504;2023-01-29T19:34:48;20.52;;;10.63;;
32946;SDS011;54465;51.230;22.504;2023-01-29T19:39:48;20.98;;;11.55;;
32946;SDS011;54465;51.230;22.504;2023-01-29T19:44:49;17.02;;;10.13;;
32946;SDS011;54465;51.230;22.504;2023-01-29T19:49:51;17.83;;;9.57;;
32946;SDS011;54465;51.230;22.504;2023-01-29T19:54:51;19.58;;;10.35;;
32946;SDS011;54465;51.230;22.504;2023-01-29T19:59:52;20.00;;;11.60;;
32946;SDS011;54465;51.230;22.504;2023-01-29T20:04:55;19.90;;;11.07;;
32946;SDS011;54465;51.230;22.504;2023-01-29T20:09:56;19.30;;;10.07;;
32946;SDS011;54465;51.230;22.504;2023-01-29T20:14:56;19.90;;;12.32;;
32946;SDS011;54465;51.230;22.504;2023-01-29T20:19:57;16.20;;;10.00;;
32946;SDS011;54465;51.230;22.504;2023-01-29T20:24:57;20.52;;;11.80;;
32946;SDS011;54465;51.230;22.504;2023-01-29T20:29:58;18.58;;;10.73;;
32946;SDS011;54465;51.230;22.504;2023-01-29T20:34:58;17.80;;;10.63;;
32946;SDS011;54465;51.230;22.504;2023-01-29T20:39:59;23.25;;;12.18;;
32946;SDS011;54465;51.230;22.504;2023-01-29T20:44:59;22.17;;;11.75;;
32946;SDS011;54465;51.230;22.504;2023-01-29T20:50:00;19.40;;;10.10;;
32946;SDS011;54465;51.230;22.504;2023-01-29T20:55:08;22.70;;;12.00;;
32946;SDS011;54465;51.230;22.504;2023-01-29T21:00:10;23.65;;;12.60;;
32946;SDS011;54465;51.230;22.504;2023-01-29T21:05:12;24.88;;;12.10;;
32946;SDS011;54465;51.230;22.504;2023-01-29T21:10:13;21.38;;;11.55;;
32946;SDS011;54465;51.230;22.504;2023-01-29T21:15:13;19.90;;;12.02;;
32946;SDS011;54465;51.230;22.504;2023-01-29T21:20:14;23.27;;;11.18;;
32946;SDS011;54465;51.230;22.504;2023-01-29T21:25:14;22.40;;;11.85;;
32946;SDS011;54465;51.230;22.504;2023-01-29T21:30:16;21.13;;;11.07;;
32946;SDS011;54465;51.230;22.504;2023-01-29T21:35:17;18.70;;;11.07;;
32946;SDS011;54465;51.230;22.504;2023-01-29T21:40:17;21.48;;;10.15;;
32946;SDS011;54465;51.230;22.504;2023-01-29T21:45:20;17.77;;;10.35;;
32946;SDS011;54465;51.230;22.504;2023-01-29T21:50:20;22.23;;;10.77;;
32946;SDS011;54465;51.230;22.504;2023-01-29T21:55:21;18.27;;;10.02;;
32946;SDS011;54465;51.230;22.504;2023-01-29T22:00:21;20.02;;;11.02;;
32946;SDS011;54465;51.230;22.504;2023-01-29T22:05:22;23.88;;;11.90;;
32946;SDS011;54465;51.230;22.504;2023-01-29T22:10:22;16.35;;;9.43;;
32946;SDS011;54465;51.230;22.504;2023-01-29T22:15:24;19.08;;;10.68;;
32946;SDS011;54465;51.230;22.504;2023-01-29T22:20:24;15.90;;;10.10;;
32946;SDS011;54465;51.230;22.504;2023-01-29T22:25:29;18.80;;;9.90;;
32946;SDS011;54465;51.230;22.504;2023-01-29T22:30:31;17.65;;;10.07;;
32946;SDS011;54465;51.230;22.504;2023-01-29T22:35:31;17.10;;;9.60;;
32946;SDS011;54465;51.230;22.504;2023-01-29T22:40:32;20.23;;;11.70;;
32946;SDS011;54465;51.230;22.504;2023-01-29T22:45:33;23.02;;;11.07;;
32946;SDS011;54465;51.230;22.504;2023-01-29T22:50:33;20.88;;;11.18;;
32946;SDS011;54465;51.230;22.504;2023-01-29T22:55:34;18.25;;;12.57;;
32946;SDS011;54465;51.230;22.504;2023-01-29T23:00:34;20.08;;;10.65;;
32946;SDS011;54465;51.230;22.504;2023-01-29T23:05:35;19.02;;;10.77;;
32946;SDS011;54465;51.230;22.504;2023-01-29T23:10:36;15.18;;;9.10;;
32946;SDS011;54465;51.230;22.504;2023-01-29T23:15:36;17.15;;;10.77;;
32946;SDS011;54465;51.230;22.504;2023-01-29T23:20:37;18.38;;;10.13;;
32946;SDS011;54465;51.230;22.504;2023-01-29T23:25:37;18.25;;;11.35;;
32946;SDS011;54465;51.230;22.504;2023-01-29T23:30:56;17.45;;;10.20;;
32946;SDS011;54465;51.230;22.504;2023-01-29T23:35:56;28.95;;;14.70;;
32946;SDS011;54465;51.230;22.504;2023-01-29T23:40:58;20.55;;;11.13;;
32946;SDS011;54465;51.230;22.504;2023-01-29T23:45:59;21.63;;;10.95;;
32946;SDS011;54465;51.230;22.504;2023-01-29T23:50:59;21.25;;;11.52;;
32946;SDS011;54465;51.230;22.504;2023-01-29T23:56:00;23.98;;;11.25;;
